createdAt,value
2019-03-17T00:00:25.966Z,99.90
2019-03-17T00:02:54.551Z,99.90
2019-03-17T00:05:23.101Z,99.90
2019-03-17T00:07:51.639Z,99.90
2019-03-17T00:10:20.207Z,99.90
2019-03-17T00:12:48.789Z,99.90
2019-03-17T00:15:17.415Z,99.90
2019-03-17T00:17:45.930Z,99.90
2019-03-17T00:20:14.530Z,99.90
2019-03-17T00:22:43.078Z,99.90
2019-03-17T00:25:11.697Z,99.90
2019-03-17T00:27:40.275Z,99.90
2019-03-17T00:30:11.365Z,99.90
2019-03-17T00:32:39.946Z,99.90
2019-03-17T00:35:08.567Z,99.90
2019-03-17T00:37:37.144Z,99.90
2019-03-17T00:40:11.782Z,99.90
2019-03-17T00:42:40.359Z,99.90
2019-03-17T00:45:12.251Z,99.90
2019-03-17T00:47:40.845Z,99.90
2019-03-17T00:50:10.737Z,99.90
2019-03-17T00:52:39.373Z,99.90
2019-03-17T00:55:07.987Z,99.90
2019-03-17T00:57:36.571Z,99.90
2019-03-17T01:00:08.271Z,99.90
2019-03-17T01:02:36.842Z,99.90
2019-03-17T01:05:06.534Z,99.90
2019-03-17T01:07:35.114Z,99.90
2019-03-17T01:10:04.608Z,99.90
2019-03-17T01:12:33.181Z,99.90
2019-03-17T01:15:01.733Z,99.90
2019-03-17T01:17:30.316Z,99.90
2019-03-17T01:19:58.863Z,99.90
2019-03-17T01:22:27.445Z,99.90
2019-03-17T01:24:56.003Z,99.90
2019-03-17T01:27:24.554Z,99.90
2019-03-17T01:29:53.139Z,99.90
2019-03-17T01:32:21.688Z,99.90
2019-03-17T01:34:50.203Z,99.90
2019-03-17T01:37:18.754Z,99.90
2019-03-17T01:39:47.338Z,99.90
2019-03-17T01:42:18.405Z,99.90
2019-03-17T01:44:46.187Z,99.90
2019-03-17T01:47:14.735Z,99.90
2019-03-17T01:49:43.321Z,99.90
2019-03-17T01:52:11.864Z,99.90
2019-03-17T01:54:41.273Z,99.90
2019-03-17T01:57:09.748Z,99.90
2019-03-17T01:59:38.258Z,99.90
2019-03-17T02:02:06.846Z,99.90
2019-03-17T02:04:35.414Z,99.90
2019-03-17T02:07:04.031Z,99.90
2019-03-17T02:09:32.611Z,99.90
2019-03-17T02:12:01.151Z,99.90
2019-03-17T02:14:29.722Z,99.90
2019-03-17T02:16:58.265Z,99.90
2019-03-17T02:19:26.770Z,99.90
2019-03-17T02:21:55.318Z,99.90
2019-03-17T02:24:23.893Z,99.90
2019-03-17T02:26:52.441Z,99.90
2019-03-17T02:29:21.020Z,99.90
2019-03-17T02:31:49.577Z,99.90
2019-03-17T02:34:18.146Z,99.90
2019-03-17T02:36:46.695Z,99.90
2019-03-17T02:39:15.284Z,99.90
2019-03-17T02:41:43.836Z,99.90
2019-03-17T02:44:12.378Z,99.90
2019-03-17T02:46:40.955Z,99.90
2019-03-17T02:49:09.503Z,99.90
2019-03-17T02:51:38.083Z,99.90
2019-03-17T02:54:06.721Z,99.90
2019-03-17T02:56:35.329Z,99.90
2019-03-17T02:59:03.910Z,99.90
2019-03-17T03:01:32.481Z,99.90
2019-03-17T03:04:01.103Z,99.90
2019-03-17T03:06:29.690Z,99.90
2019-03-17T03:08:58.234Z,99.90
2019-03-17T03:11:26.818Z,99.90
2019-03-17T03:13:55.372Z,99.90
2019-03-17T03:16:23.942Z,99.90
2019-03-17T03:18:52.487Z,99.90
2019-03-17T03:21:21.072Z,99.90
2019-03-17T03:23:49.618Z,99.90
2019-03-17T03:26:18.276Z,99.90
2019-03-17T03:28:46.751Z,99.90
2019-03-17T03:31:15.330Z,99.90
2019-03-17T03:33:43.901Z,99.90
2019-03-17T03:36:12.504Z,99.90
2019-03-17T03:38:41.034Z,99.90
2019-03-17T03:41:09.690Z,99.90
2019-03-17T03:43:38.238Z,99.90
2019-03-17T03:46:06.826Z,99.90
2019-03-17T03:48:35.376Z,99.90
2019-03-17T03:51:03.962Z,99.90
2019-03-17T03:53:32.506Z,99.90
2019-03-17T03:56:01.157Z,99.90
2019-03-17T03:58:29.720Z,99.90
2019-03-17T04:00:58.295Z,99.90
2019-03-17T04:03:26.914Z,99.90
2019-03-17T04:05:55.506Z,99.90
2019-03-17T04:08:24.051Z,99.90
2019-03-17T04:10:52.593Z,99.90
2019-03-17T04:13:21.103Z,99.90
2019-03-17T04:15:49.662Z,99.90
2019-03-17T04:18:18.244Z,99.90
2019-03-17T04:20:46.862Z,99.90
2019-03-17T04:23:15.447Z,99.90
2019-03-17T04:25:43.993Z,99.90
2019-03-17T04:28:12.512Z,99.90
2019-03-17T04:30:41.061Z,99.90
2019-03-17T04:33:09.533Z,99.90
2019-03-17T04:35:38.113Z,99.90
2019-03-17T04:38:06.675Z,99.90
2019-03-17T04:40:35.263Z,99.90
2019-03-17T04:43:03.819Z,99.90
2019-03-17T04:45:32.389Z,99.90
2019-03-17T04:48:00.946Z,99.90
2019-03-17T04:50:29.612Z,99.90
2019-03-17T04:52:58.167Z,99.90
2019-03-17T04:55:26.717Z,99.90
2019-03-17T04:57:55.289Z,99.90
2019-03-17T05:00:23.909Z,99.90
2019-03-17T05:02:52.493Z,99.90
2019-03-17T05:05:21.047Z,99.90
2019-03-17T05:07:49.627Z,99.90
2019-03-17T05:10:18.173Z,99.90
2019-03-17T05:12:46.695Z,99.90
2019-03-17T05:15:15.241Z,99.90
2019-03-17T05:17:43.750Z,99.90
2019-03-17T05:20:12.443Z,99.90
2019-03-17T05:22:40.957Z,99.90
2019-03-17T05:25:09.765Z,99.90
2019-03-17T05:27:38.345Z,99.90
2019-03-17T05:30:09.605Z,99.90
2019-03-17T05:32:38.199Z,99.90
2019-03-17T05:35:07.222Z,99.90
2019-03-17T05:37:35.817Z,99.90
2019-03-17T05:40:06.637Z,99.90
2019-03-17T05:42:35.219Z,99.90
2019-03-17T05:45:04.341Z,99.90
2019-03-17T05:47:32.897Z,99.90
2019-03-17T05:50:01.472Z,99.90
2019-03-17T05:52:30.022Z,99.90
2019-03-17T05:54:58.605Z,99.90
2019-03-17T05:57:27.154Z,99.90
2019-03-17T05:59:55.731Z,99.90
2019-03-17T06:02:24.207Z,99.90
2019-03-17T06:04:52.795Z,99.90
2019-03-17T06:07:21.349Z,99.90
2019-03-17T06:09:49.858Z,99.90
2019-03-17T06:12:18.413Z,99.90
2019-03-17T06:14:46.998Z,99.90
2019-03-17T06:17:15.549Z,99.90
2019-03-17T06:19:44.289Z,99.90
2019-03-17T06:22:12.847Z,99.90
2019-03-17T06:24:41.441Z,99.90
2019-03-17T06:27:10.019Z,99.90
2019-03-17T06:29:38.597Z,99.90
2019-03-17T06:32:07.073Z,99.90
2019-03-17T06:34:35.662Z,99.90
2019-03-17T06:37:04.205Z,99.90
2019-03-17T06:39:32.781Z,99.90
2019-03-17T06:42:01.329Z,99.90
2019-03-17T06:44:29.919Z,99.90
2019-03-17T06:46:58.471Z,99.90
2019-03-17T06:49:27.055Z,99.90
2019-03-17T06:51:55.613Z,99.90
2019-03-17T06:54:24.197Z,99.90
2019-03-17T06:56:52.673Z,99.90
2019-03-17T06:59:21.232Z,99.90
2019-03-17T07:01:49.801Z,99.90
2019-03-17T07:04:18.297Z,99.90
2019-03-17T07:06:46.878Z,99.90
2019-03-17T07:09:15.433Z,99.90
2019-03-17T07:11:44.079Z,99.90
2019-03-17T07:14:12.629Z,99.90
2019-03-17T07:16:41.136Z,99.90
2019-03-17T07:19:09.701Z,99.90
2019-03-17T07:21:38.289Z,99.90
2019-03-17T07:24:06.817Z,99.90
2019-03-17T07:26:35.336Z,99.90
2019-03-17T07:29:03.889Z,99.90
2019-03-17T07:31:32.474Z,99.90
2019-03-17T07:34:01.038Z,99.90
2019-03-17T07:36:29.617Z,99.90
2019-03-17T07:39:10.822Z,99.90
2019-03-17T07:41:28.406Z,99.90
2019-03-17T07:43:56.965Z,99.90
2019-03-17T07:46:25.551Z,99.90
2019-03-17T07:48:54.120Z,99.90
2019-03-17T07:51:22.681Z,99.90
2019-03-17T07:53:51.163Z,99.90
2019-03-17T07:56:19.815Z,99.90
2019-03-17T07:58:48.384Z,99.90
2019-03-17T08:01:16.968Z,99.90
2019-03-17T08:03:45.526Z,99.90
2019-03-17T08:06:14.130Z,99.90
2019-03-17T08:08:42.870Z,99.90
2019-03-17T08:11:11.437Z,99.90
2019-03-17T08:13:39.922Z,99.90
2019-03-17T08:16:08.505Z,99.90
2019-03-17T08:18:36.993Z,99.90
2019-03-17T08:21:05.586Z,99.90
2019-03-17T08:23:34.076Z,99.90
2019-03-17T08:26:02.657Z,99.90
2019-03-17T08:28:31.225Z,99.90
2019-03-17T08:30:59.721Z,99.90
2019-03-17T08:33:28.323Z,99.90
2019-03-17T08:35:56.861Z,99.90
2019-03-17T08:38:25.457Z,99.90
2019-03-17T08:40:54.016Z,99.90
2019-03-17T08:43:22.605Z,99.90
2019-03-17T08:45:51.171Z,99.90
2019-03-17T08:48:19.759Z,99.90
2019-03-17T08:50:48.323Z,97.10
2019-03-17T08:53:16.913Z,91.40
2019-03-17T08:55:45.544Z,88.30
2019-03-17T08:58:14.160Z,84.10
2019-03-17T09:00:42.735Z,88.40
2019-03-17T09:03:11.333Z,88.20
2019-03-17T09:05:39.988Z,77.80
2019-03-17T09:08:08.592Z,82.60
2019-03-17T09:10:37.154Z,81.10
2019-03-17T09:13:05.748Z,84.60
2019-03-17T09:15:34.302Z,75.00
2019-03-17T09:18:02.911Z,75.20
2019-03-17T09:20:31.467Z,73.80
2019-03-17T09:23:00.125Z,74.40
2019-03-17T09:25:28.771Z,70.20
2019-03-17T09:27:57.352Z,73.00
2019-03-17T09:30:25.913Z,71.50
2019-03-17T09:32:54.515Z,71.90
2019-03-17T09:35:23.074Z,72.20
2019-03-17T09:37:51.725Z,75.40
2019-03-17T09:40:20.269Z,80.20
2019-03-17T09:42:48.855Z,79.90
2019-03-17T09:45:17.480Z,77.40
2019-03-17T09:47:46.135Z,79.10
2019-03-17T09:50:17.098Z,80.30
2019-03-17T09:52:45.656Z,85.90
2019-03-17T09:55:14.575Z,79.20
2019-03-17T09:57:43.114Z,80.60
2019-03-17T10:00:16.933Z,76.60
2019-03-17T10:02:45.552Z,77.70
2019-03-17T10:05:14.536Z,80.60
2019-03-17T10:07:43.156Z,73.00
2019-03-17T10:10:13.695Z,76.80
2019-03-17T10:12:42.317Z,69.00
2019-03-17T10:15:13.549Z,69.40
2019-03-17T10:17:42.118Z,70.90
2019-03-17T10:20:16.097Z,72.30
2019-03-17T10:22:44.680Z,70.00
2019-03-17T10:25:13.490Z,61.30
2019-03-17T10:27:42.174Z,57.10
2019-03-17T10:30:13.832Z,54.40
2019-03-17T10:32:42.421Z,52.00
2019-03-17T10:35:10.983Z,51.30
2019-03-17T10:37:39.686Z,51.30
2019-03-17T10:40:18.899Z,51.30
2019-03-17T10:42:47.602Z,44.00
2019-03-17T10:45:16.318Z,43.70
2019-03-17T10:47:44.953Z,42.70
2019-03-17T10:50:18.606Z,42.50
2019-03-17T10:52:47.300Z,41.10
2019-03-17T10:55:16.287Z,41.20
2019-03-17T10:57:44.932Z,41.60
2019-03-17T11:00:18.265Z,38.20
2019-03-17T11:02:46.864Z,38.90
2019-03-17T11:05:15.425Z,39.50
2019-03-17T11:07:44.077Z,37.60
2019-03-17T11:10:14.001Z,36.70
2019-03-17T11:12:42.585Z,36.80
2019-03-17T11:15:14.147Z,37.50
2019-03-17T11:17:42.765Z,34.90
2019-03-17T11:20:13.159Z,35.90
2019-03-17T11:22:41.745Z,34.20
2019-03-17T11:25:17.610Z,35.00
2019-03-17T11:27:46.199Z,34.20
2019-03-17T11:30:19.370Z,33.30
2019-03-17T11:32:48.121Z,35.20
2019-03-17T11:35:16.822Z,30.60
2019-03-17T11:37:45.402Z,32.20
2019-03-17T11:40:20.568Z,33.00
2019-03-17T11:42:50.367Z,33.90
2019-03-17T11:45:19.270Z,32.20
2019-03-17T11:47:47.998Z,33.70
2019-03-17T11:50:20.862Z,27.00
2019-03-17T11:52:49.602Z,28.70
2019-03-17T11:55:18.298Z,31.60
2019-03-17T11:57:47.234Z,32.90
2019-03-17T12:00:23.635Z,31.10
2019-03-17T12:02:52.205Z,30.90
2019-03-17T12:05:20.902Z,29.30
2019-03-17T12:07:49.729Z,32.50
2019-03-17T12:10:20.026Z,30.90
2019-03-17T12:12:48.606Z,33.40
2019-03-17T12:15:26.367Z,34.20
2019-03-17T12:17:54.945Z,34.00
2019-03-17T12:20:23.519Z,33.00
2019-03-17T12:22:52.110Z,35.00
2019-03-17T12:25:20.728Z,34.40
2019-03-17T12:27:49.279Z,31.30
2019-03-17T12:30:27.671Z,31.10
2019-03-17T12:32:56.462Z,35.40
2019-03-17T12:35:25.050Z,33.90
2019-03-17T12:37:53.666Z,38.40
2019-03-17T12:40:22.241Z,32.70
2019-03-17T12:42:50.993Z,33.10
2019-03-17T12:45:19.622Z,35.20
2019-03-17T12:47:48.179Z,32.00
2019-03-17T12:50:22.097Z,34.30
2019-03-17T12:52:50.655Z,35.90
2019-03-17T12:55:19.310Z,37.90
2019-03-17T12:57:47.859Z,39.00
2019-03-17T13:00:19.157Z,42.40
2019-03-17T13:02:47.702Z,38.60
2019-03-17T13:05:16.355Z,37.70
2019-03-17T13:07:44.842Z,36.40
2019-03-17T13:10:18.385Z,39.00
2019-03-17T13:12:46.870Z,37.80
2019-03-17T13:15:15.523Z,37.40
2019-03-17T13:17:44.073Z,36.90
2019-03-17T13:20:16.454Z,38.50
2019-03-17T13:22:44.939Z,36.40
2019-03-17T13:25:13.654Z,36.80
2019-03-17T13:27:42.278Z,40.00
2019-03-17T13:30:15.038Z,44.50
2019-03-17T13:32:43.730Z,43.60
2019-03-17T13:35:12.389Z,42.60
2019-03-17T13:37:41.005Z,47.30
2019-03-17T13:40:28.127Z,45.30
2019-03-17T13:42:46.867Z,49.70
2019-03-17T13:45:15.521Z,48.80
2019-03-17T13:47:44.081Z,43.50
2019-03-17T13:50:15.734Z,43.60
2019-03-17T13:52:44.359Z,42.50
2019-03-17T13:55:13.084Z,46.70
2019-03-17T13:57:44.485Z,41.70
2019-03-17T14:00:15.082Z,42.60
2019-03-17T14:02:43.706Z,41.30
2019-03-17T14:05:12.723Z,43.90
2019-03-17T14:07:41.273Z,47.50
2019-03-17T14:10:15.725Z,49.80
2019-03-17T14:12:44.277Z,45.50
2019-03-17T14:15:14.502Z,41.10
2019-03-17T14:17:43.122Z,43.00
2019-03-17T14:20:14.334Z,41.20
2019-03-17T14:22:42.903Z,40.00
2019-03-17T14:25:16.787Z,40.80
2019-03-17T14:27:45.295Z,40.00
2019-03-17T14:30:17.495Z,43.70
2019-03-17T14:32:46.083Z,46.70
2019-03-17T14:35:14.710Z,47.30
2019-03-17T14:37:43.369Z,45.60
2019-03-17T14:40:16.201Z,47.30
2019-03-17T14:42:49.530Z,47.60
2019-03-17T14:45:18.529Z,46.70
2019-03-17T14:47:47.109Z,46.20
2019-03-17T14:50:20.735Z,49.00
2019-03-17T14:52:49.318Z,49.70
2019-03-17T14:55:18.006Z,54.30
2019-03-17T14:57:46.654Z,56.50
2019-03-17T15:00:19.552Z,58.50
2019-03-17T15:02:48.278Z,58.90
2019-03-17T15:05:17.069Z,65.60
2019-03-17T15:07:45.663Z,70.50
2019-03-17T15:10:21.058Z,74.00
2019-03-17T15:12:49.782Z,91.30
2019-03-17T15:15:20.251Z,94.30
2019-03-17T15:17:48.902Z,97.30
2019-03-17T15:20:19.010Z,99.00
2019-03-17T15:22:47.670Z,99.90
2019-03-17T15:25:16.297Z,99.90
2019-03-17T15:27:44.885Z,99.90
2019-03-17T15:30:18.904Z,99.90
2019-03-17T15:32:47.486Z,99.90
2019-03-17T15:35:16.109Z,99.90
2019-03-17T15:37:44.836Z,99.90
2019-03-17T15:40:16.002Z,99.90
2019-03-17T15:42:44.662Z,99.90
2019-03-17T15:45:15.526Z,99.90
2019-03-17T15:47:44.111Z,99.90
2019-03-17T15:50:15.742Z,99.90
2019-03-17T15:52:44.406Z,99.90
2019-03-17T15:55:15.364Z,99.90
2019-03-17T15:57:44.023Z,99.90
2019-03-17T16:00:26.326Z,99.90
2019-03-17T16:02:53.840Z,99.90
2019-03-17T16:05:22.468Z,99.90
2019-03-17T16:07:51.124Z,99.90
2019-03-17T16:10:21.125Z,99.90
2019-03-17T16:12:49.771Z,99.90
2019-03-17T16:15:18.390Z,99.90
2019-03-17T16:17:46.947Z,99.90
2019-03-17T16:20:25.577Z,99.90
2019-03-17T16:22:54.128Z,99.90
2019-03-17T16:25:27.922Z,99.90
2019-03-17T16:27:56.547Z,99.90
2019-03-17T16:30:27.041Z,99.90
2019-03-17T16:32:55.774Z,99.90
2019-03-17T16:35:24.434Z,99.90
2019-03-17T16:37:53.112Z,99.90
2019-03-17T16:40:31.266Z,99.90
2019-03-17T16:43:00.172Z,99.90
2019-03-17T16:45:28.810Z,99.90
2019-03-17T16:47:57.358Z,99.90
2019-03-17T16:50:26.010Z,99.90
2019-03-17T16:52:54.566Z,99.90
2019-03-17T16:55:23.150Z,99.90
2019-03-17T16:57:51.699Z,99.90
2019-03-17T17:00:24.199Z,99.90
2019-03-17T17:02:52.912Z,99.90
2019-03-17T17:05:23.590Z,99.90
2019-03-17T17:07:52.221Z,99.90
2019-03-17T17:10:28.031Z,99.90
2019-03-17T17:12:56.648Z,99.90
2019-03-17T17:15:26.572Z,99.90
2019-03-17T17:17:55.135Z,99.90
2019-03-17T17:20:29.347Z,99.90
2019-03-17T17:22:58.038Z,99.90
2019-03-17T17:25:26.693Z,99.90
2019-03-17T17:27:55.244Z,99.90
2019-03-17T17:30:23.893Z,99.90
2019-03-17T17:32:52.516Z,99.90
2019-03-17T17:35:21.090Z,99.90
2019-03-17T17:37:49.650Z,99.90
2019-03-17T17:40:22.970Z,99.90
2019-03-17T17:42:51.686Z,99.90
2019-03-17T17:45:26.558Z,99.90
2019-03-17T17:47:55.255Z,99.90
2019-03-17T17:50:25.770Z,99.90
2019-03-17T17:52:54.398Z,99.90
2019-03-17T17:55:22.978Z,99.90
2019-03-17T17:57:52.991Z,99.90
2019-03-17T18:00:32.566Z,99.90
2019-03-17T18:03:01.126Z,99.90
2019-03-17T18:05:29.666Z,99.90
2019-03-17T18:07:58.246Z,99.90
2019-03-17T18:10:27.105Z,99.90
2019-03-17T18:12:55.838Z,99.90
2019-03-17T18:15:28.956Z,99.90
2019-03-17T18:17:57.621Z,99.90
2019-03-17T18:20:26.166Z,99.90
2019-03-17T18:22:54.719Z,99.90
2019-03-17T18:25:23.616Z,99.90
2019-03-17T18:27:52.190Z,99.90
2019-03-17T18:30:21.806Z,99.90
2019-03-17T18:32:50.432Z,99.90
2019-03-17T18:35:19.082Z,99.90
2019-03-17T18:37:47.670Z,99.90
2019-03-17T18:40:17.126Z,99.90
2019-03-17T18:42:45.770Z,99.90
2019-03-17T18:45:19.123Z,99.90
2019-03-17T18:47:47.706Z,99.90
2019-03-17T18:50:20.396Z,99.90
2019-03-17T18:52:46.667Z,99.90
2019-03-17T18:55:16.246Z,99.90
2019-03-17T18:57:44.835Z,99.90
2019-03-17T19:00:15.898Z,99.90
2019-03-17T19:02:44.741Z,99.90
2019-03-17T19:05:19.678Z,99.90
2019-03-17T19:07:47.316Z,99.90
2019-03-17T19:10:16.799Z,99.90
2019-03-17T19:12:46.324Z,99.90
2019-03-17T19:15:22.752Z,99.90
2019-03-17T19:17:51.323Z,99.90
2019-03-17T19:20:20.948Z,99.90
2019-03-17T19:22:49.531Z,99.90
2019-03-17T19:25:22.322Z,99.90
2019-03-17T19:27:50.970Z,99.90
2019-03-17T19:30:20.758Z,99.90
2019-03-17T19:32:49.480Z,99.90
2019-03-17T19:35:18.094Z,99.90
2019-03-17T19:37:46.678Z,99.90
2019-03-17T19:40:19.301Z,99.90
2019-03-17T19:42:57.866Z,99.90
2019-03-17T19:45:18.174Z,99.90
2019-03-17T19:47:46.723Z,99.90
2019-03-17T19:50:19.599Z,99.90
2019-03-17T19:52:58.770Z,99.90
2019-03-17T19:55:27.323Z,99.90
2019-03-17T19:57:55.908Z,99.90
2019-03-17T20:00:24.518Z,99.90
2019-03-17T20:02:53.118Z,99.90
2019-03-17T20:05:21.686Z,99.90
2019-03-17T20:07:50.263Z,99.90
2019-03-17T20:10:35.163Z,99.90
2019-03-17T20:13:11.502Z,99.90
2019-03-17T20:15:33.937Z,99.90
2019-03-17T20:18:02.523Z,99.90
2019-03-17T20:20:31.055Z,99.90
2019-03-17T20:22:59.656Z,99.90
2019-03-17T20:25:28.186Z,99.90
2019-03-17T20:27:56.806Z,99.90
2019-03-17T20:30:25.408Z,99.90
2019-03-17T20:32:53.938Z,99.90
2019-03-17T20:35:22.462Z,99.90
2019-03-17T20:37:50.991Z,99.90
2019-03-17T20:40:19.946Z,99.90
2019-03-17T20:42:48.500Z,99.90
2019-03-17T20:45:20.153Z,99.90
2019-03-17T20:47:47.417Z,99.90
2019-03-17T20:50:17.101Z,99.90
2019-03-17T20:52:45.739Z,99.90
2019-03-17T20:55:14.386Z,99.90
2019-03-17T20:57:43.007Z,99.90
2019-03-17T21:00:16.295Z,99.90
2019-03-17T21:02:44.906Z,99.90
2019-03-17T21:05:13.826Z,99.90
2019-03-17T21:07:42.718Z,99.90
2019-03-17T21:10:14.004Z,99.90
2019-03-17T21:12:42.714Z,99.90
2019-03-17T21:15:18.923Z,99.90
2019-03-17T21:17:47.490Z,99.90
2019-03-17T21:20:23.214Z,99.90
2019-03-17T21:22:51.832Z,99.90
2019-03-17T21:25:20.410Z,99.90
2019-03-17T21:27:48.961Z,99.90
2019-03-17T21:30:23.178Z,99.90
2019-03-17T21:32:51.734Z,99.90
2019-03-17T21:35:20.386Z,99.90
2019-03-17T21:37:48.999Z,99.90
2019-03-17T21:40:17.718Z,99.90
2019-03-17T21:42:46.353Z,99.90
2019-03-17T21:45:14.983Z,99.90
2019-03-17T21:47:43.603Z,99.90
2019-03-17T21:50:17.902Z,99.90
2019-03-17T21:52:46.451Z,99.90
2019-03-17T21:55:15.100Z,99.90
2019-03-17T21:57:43.725Z,99.90
2019-03-17T22:00:18.315Z,99.90
2019-03-17T22:02:46.984Z,99.90
2019-03-17T22:05:16.002Z,99.90
2019-03-17T22:07:50.279Z,99.90
2019-03-17T22:10:19.738Z,99.90
2019-03-17T22:12:48.366Z,99.90
2019-03-17T22:15:17.982Z,99.90
2019-03-17T22:17:46.536Z,99.90
2019-03-17T22:20:15.755Z,99.90
2019-03-17T22:22:44.444Z,99.90
2019-03-17T22:25:16.794Z,99.90
2019-03-17T22:27:45.375Z,99.90
2019-03-17T22:30:17.683Z,99.90
2019-03-17T22:32:46.256Z,99.90
2019-03-17T22:35:14.864Z,99.90
2019-03-17T22:37:43.438Z,99.90
2019-03-17T22:40:18.714Z,99.90
2019-03-17T22:42:47.290Z,99.90
2019-03-17T22:45:16.412Z,99.90
2019-03-17T22:50:22.806Z,99.90
2019-03-17T22:52:51.382Z,99.90
2019-03-17T22:55:19.929Z,99.90
2019-03-17T22:57:48.506Z,99.90
2019-03-17T23:00:19.726Z,99.90
2019-03-17T23:02:48.312Z,99.90
2019-03-17T23:05:16.935Z,99.90
2019-03-17T23:07:45.519Z,99.90
2019-03-17T23:10:14.138Z,99.90
2019-03-17T23:12:42.719Z,99.90
2019-03-17T23:15:12.702Z,99.90
2019-03-17T23:17:41.275Z,99.90
2019-03-17T23:20:14.662Z,99.90
2019-03-17T23:22:43.309Z,99.90
2019-03-17T23:25:12.404Z,99.90
2019-03-17T23:27:41.046Z,99.90
2019-03-17T23:30:20.016Z,99.90
2019-03-17T23:32:49.351Z,99.90
2019-03-17T23:35:18.259Z,99.90
2019-03-17T23:37:46.898Z,99.90
2019-03-17T23:40:16.991Z,99.90
2019-03-17T23:42:45.564Z,99.90
2019-03-17T23:45:14.653Z,99.90
2019-03-17T23:47:43.362Z,99.90
2019-03-17T23:50:13.261Z,99.90
2019-03-17T23:52:41.798Z,99.90
2019-03-17T23:55:14.148Z,99.90
2019-03-17T23:57:42.702Z,99.90
